sensor_id;sensor_type;location;lat;lon;timestamp;pressure;altitude;pressure_sealevel;temperature;humidity
15604;BME280;7902;49.042;9.092;2023-01-27T00:00:08;99386.72;;;4.82;58.11
15604;BME280;7902;49.042;9.092;2023-01-27T00:02:36;99376.00;;;4.90;57.95
15604;BME280;7902;49.042;9.092;2023-01-27T00:05:03;99380.41;;;4.88;58.22
15604;BME280;7902;49.042;9.092;2023-01-27T00:07:29;99377.41;;;4.97;57.63
15604;BME280;7902;49.042;9.092;2023-01-27T00:09:55;99376.97;;;4.87;58.15
15604;BME280;7902;49.042;9.092;2023-01-27T00:12:22;99371.75;;;4.87;58.10
15604;BME280;7902;49.042;9.092;2023-01-27T00:15:08;99372.59;;;4.69;58.15
15604;BME280;7902;49.042;9.092;2023-01-27T00:17:35;99373.31;;;4.91;58.12
15604;BME280;7902;49.042;9.092;2023-01-27T00:20:01;99372.19;;;4.97;57.90
15604;BME280;7902;49.042;9.092;2023-01-27T00:22:27;99377.81;;;4.88;58.08
15604;BME280;7902;49.042;9.092;2023-01-27T00:25:11;99378.59;;;4.90;57.51
15604;BME280;7902;49.042;9.092;2023-01-27T00:27:37;99370.28;;;4.81;57.94
15604;BME280;7902;49.042;9.092;2023-01-27T00:30:05;99373.03;;;4.97;57.63
15604;BME280;7902;49.042;9.092;2023-01-27T00:32:31;99376.53;;;4.96;57.96
15604;BME280;7902;49.042;9.092;2023-01-27T00:35:16;99375.06;;;4.91;57.71
15604;BME280;7902;49.042;9.092;2023-01-27T00:37:43;99374.16;;;4.92;57.60
15604;BME280;7902;49.042;9.092;2023-01-27T00:40:10;99377.13;;;5.03;57.75
15604;BME280;7902;49.042;9.092;2023-01-27T00:42:37;99377.53;;;4.94;57.75
15604;BME280;7902;49.042;9.092;2023-01-27T00:45:03;99373.19;;;4.94;57.62
15604;BME280;7902;49.042;9.092;2023-01-27T00:47:48;99375.84;;;4.93;57.67
15604;BME280;7902;49.042;9.092;2023-01-27T00:50:14;99371.13;;;5.01;57.62
15604;BME280;7902;49.042;9.092;2023-01-27T00:52:42;99367.69;;;4.81;57.95
15604;BME280;7902;49.042;9.092;2023-01-27T00:55:08;99370.16;;;4.84;57.88
15604;BME280;7902;49.042;9.092;2023-01-27T00:57:36;99374.31;;;4.89;57.89
15604;BME280;7902;49.042;9.092;2023-01-27T01:00:03;99380.47;;;4.86;58.06
15604;BME280;7902;49.042;9.092;2023-01-27T01:02:29;99376.25;;;4.83;58.07
15604;BME280;7902;49.042;9.092;2023-01-27T01:04:55;99373.25;;;4.93;57.78
15604;BME280;7902;49.042;9.092;2023-01-27T01:07:21;99377.88;;;4.86;57.64
15604;BME280;7902;49.042;9.092;2023-01-27T01:09:47;99376.59;;;4.95;57.59
15604;BME280;7902;49.042;9.092;2023-01-27T01:12:13;99384.28;;;4.98;57.36
15604;BME280;7902;49.042;9.092;2023-01-27T01:14:39;99380.84;;;4.97;57.46
15604;BME280;7902;49.042;9.092;2023-01-27T01:17:05;99383.44;;;4.97;57.58
15604;BME280;7902;49.042;9.092;2023-01-27T01:19:31;99384.09;;;5.02;57.43
15604;BME280;7902;49.042;9.092;2023-01-27T01:21:57;99385.78;;;5.03;57.16
15604;BME280;7902;49.042;9.092;2023-01-27T01:24:22;99376.91;;;5.07;57.27
15604;BME280;7902;49.042;9.092;2023-01-27T01:26:48;99391.47;;;5.11;57.29
15604;BME280;7902;49.042;9.092;2023-01-27T01:29:14;99384.84;;;5.04;57.49
15604;BME280;7902;49.042;9.092;2023-01-27T01:31:40;99385.78;;;5.03;57.23
15604;BME280;7902;49.042;9.092;2023-01-27T01:34:07;99381.44;;;5.04;57.47
15604;BME280;7902;49.042;9.092;2023-01-27T01:36:33;99376.00;;;5.08;57.10
15604;BME280;7902;49.042;9.092;2023-01-27T01:38:59;99376.00;;;5.08;57.29
15604;BME280;7902;49.042;9.092;2023-01-27T01:41:26;99372.41;;;5.11;57.64
15604;BME280;7902;49.042;9.092;2023-01-27T01:43:52;99380.38;;;5.08;57.49
15604;BME280;7902;49.042;9.092;2023-01-27T01:46:18;99378.66;;;5.07;57.06
15604;BME280;7902;49.042;9.092;2023-01-27T01:51:13;99368.97;;;5.10;57.27
15604;BME280;7902;49.042;9.092;2023-01-27T01:53:44;99363.91;;;5.07;57.38
15604;BME280;7902;49.042;9.092;2023-01-27T01:56:16;99369.16;;;5.06;57.44
15604;BME280;7902;49.042;9.092;2023-01-27T01:58:44;99364.03;;;5.04;57.50
15604;BME280;7902;49.042;9.092;2023-01-27T02:01:12;99363.59;;;5.13;57.37
15604;BME280;7902;49.042;9.092;2023-01-27T02:03:40;99359.53;;;5.08;57.08
15604;BME280;7902;49.042;9.092;2023-01-27T02:06:08;99367.13;;;5.12;56.97
15604;BME280;7902;49.042;9.092;2023-01-27T02:08:41;99361.84;;;5.14;56.99
15604;BME280;7902;49.042;9.092;2023-01-27T02:11:08;99363.75;;;5.10;57.03
15604;BME280;7902;49.042;9.092;2023-01-27T02:13:34;99360.19;;;5.13;57.23
15604;BME280;7902;49.042;9.092;2023-01-27T02:16:00;99362.28;;;5.05;57.14
15604;BME280;7902;49.042;9.092;2023-01-27T02:18:27;99353.06;;;5.16;56.62
15604;BME280;7902;49.042;9.092;2023-01-27T02:20:53;99353.63;;;5.04;57.05
15604;BME280;7902;49.042;9.092;2023-01-27T02:23:52;99356.16;;;5.06;57.45
15604;BME280;7902;49.042;9.092;2023-01-27T02:28:55;99351.38;;;4.97;57.46
15604;BME280;7902;49.042;9.092;2023-01-27T02:31:21;99355.47;;;5.02;57.29
15604;BME280;7902;49.042;9.092;2023-01-27T02:33:48;99354.75;;;4.99;57.38
15604;BME280;7902;49.042;9.092;2023-01-27T02:36:16;99348.84;;;4.95;57.41
15604;BME280;7902;49.042;9.092;2023-01-27T02:38:46;99353.19;;;4.95;57.41
15604;BME280;7902;49.042;9.092;2023-01-27T02:41:20;99354.75;;;4.99;57.70
15604;BME280;7902;49.042;9.092;2023-01-27T02:43:50;99352.28;;;4.96;57.76
15604;BME280;7902;49.042;9.092;2023-01-27T02:46:16;99353.72;;;5.03;57.70
15604;BME280;7902;49.042;9.092;2023-01-27T02:48:42;99353.19;;;4.95;57.39
15604;BME280;7902;49.042;9.092;2023-01-27T02:51:08;99350.53;;;4.96;57.68
15604;BME280;7902;49.042;9.092;2023-01-27T02:53:35;99354.13;;;4.94;57.46
15604;BME280;7902;49.042;9.092;2023-01-27T02:56:00;99344.06;;;5.05;57.61
15604;BME280;7902;49.042;9.092;2023-01-27T02:58:26;99348.56;;;5.01;57.34
15604;BME280;7902;49.042;9.092;2023-01-27T03:00:52;99354.41;;;4.88;57.63
15604;BME280;7902;49.042;9.092;2023-01-27T03:03:18;99343.84;;;4.91;57.76
15604;BME280;7902;49.042;9.092;2023-01-27T03:05:44;99349.84;;;4.93;57.91
15604;BME280;7902;49.042;9.092;2023-01-27T03:08:11;99344.78;;;4.90;57.81
15604;BME280;7902;49.042;9.092;2023-01-27T03:10:36;99347.72;;;5.01;57.99
15604;BME280;7902;49.042;9.092;2023-01-27T03:13:03;99350.59;;;4.95;57.69
15604;BME280;7902;49.042;9.092;2023-01-27T03:15:29;99344.16;;;5.03;57.75
15604;BME280;7902;49.042;9.092;2023-01-27T03:18:13;99348.63;;;5.00;57.44
15604;BME280;7902;49.042;9.092;2023-01-27T03:20:47;99349.97;;;5.08;57.81
15604;BME280;7902;49.042;9.092;2023-01-27T03:23:15;99357.78;;;5.08;57.47
15604;BME280;7902;49.042;9.092;2023-01-27T03:25:43;99356.16;;;5.06;57.39
15604;BME280;7902;49.042;9.092;2023-01-27T03:28:10;99352.50;;;5.10;57.53
15604;BME280;7902;49.042;9.092;2023-01-27T03:30:37;99348.28;;;5.07;57.30
15604;BME280;7902;49.042;9.092;2023-01-27T03:33:04;99349.25;;;5.05;57.26
15604;BME280;7902;49.042;9.092;2023-01-27T03:35:31;99353.19;;;5.13;57.29
15604;BME280;7902;49.042;9.092;2023-01-27T03:38:14;99355.94;;;5.10;57.28
15604;BME280;7902;49.042;9.092;2023-01-27T03:41:02;99358.41;;;5.13;57.52
15604;BME280;7902;49.042;9.092;2023-01-27T03:43:46;99353.13;;;5.15;57.31
15604;BME280;7902;49.042;9.092;2023-01-27T03:46:31;99353.34;;;5.10;57.87
15604;BME280;7902;49.042;9.092;2023-01-27T03:48:57;99350.59;;;5.13;57.29
15604;BME280;7902;49.042;9.092;2023-01-27T03:51:25;99362.91;;;5.10;57.50
15604;BME280;7902;49.042;9.092;2023-01-27T03:53:52;99354.34;;;5.08;57.65
15604;BME280;7902;49.042;9.092;2023-01-27T03:56:20;99359.81;;;5.02;57.46
15604;BME280;7902;49.042;9.092;2023-01-27T03:58:47;99369.16;;;5.06;57.91
15604;BME280;7902;49.042;9.092;2023-01-27T04:01:19;99377.56;;;5.12;57.78
15604;BME280;7902;49.042;9.092;2023-01-27T04:03:46;99371.72;;;5.07;57.85
15604;BME280;7902;49.042;9.092;2023-01-27T04:06:33;99367.56;;;5.03;57.90
15604;BME280;7902;49.042;9.092;2023-01-27T04:09:21;99373.63;;;5.04;57.86
15604;BME280;7902;49.042;9.092;2023-01-27T04:11:47;99379.09;;;4.98;58.16
15604;BME280;7902;49.042;9.092;2023-01-27T04:14:21;99378.72;;;5.05;57.63
15604;BME280;7902;49.042;9.092;2023-01-27T04:16:47;99381.28;;;5.07;57.88
15604;BME280;7902;49.042;9.092;2023-01-27T04:19:13;99381.00;;;5.13;57.64
15604;BME280;7902;49.042;9.092;2023-01-27T04:21:39;99381.34;;;5.24;57.51
15604;BME280;7902;49.042;9.092;2023-01-27T04:24:06;99384.03;;;5.22;57.09
15604;BME280;7902;49.042;9.092;2023-01-27T04:26:43;99386.41;;;5.27;57.12
15604;BME280;7902;49.042;9.092;2023-01-27T04:29:11;99376.44;;;5.18;57.38
15604;BME280;7902;49.042;9.092;2023-01-27T04:31:38;99385.06;;;5.18;57.63
15604;BME280;7902;49.042;9.092;2023-01-27T04:34:05;99381.63;;;5.18;57.41
15604;BME280;7902;49.042;9.092;2023-01-27T04:36:31;99375.66;;;5.16;57.91
15604;BME280;7902;49.042;9.092;2023-01-27T04:38:57;99385.41;;;5.29;56.97
15604;BME280;7902;49.042;9.092;2023-01-27T04:41:22;99382.19;;;5.24;57.39
15604;BME280;7902;49.042;9.092;2023-01-27T04:43:48;99389.94;;;5.26;57.52
15604;BME280;7902;49.042;9.092;2023-01-27T04:46:14;99390.03;;;5.42;56.83
15604;BME280;7902;49.042;9.092;2023-01-27T04:48:40;99394.06;;;5.49;56.84
15604;BME280;7902;49.042;9.092;2023-01-27T04:51:06;99393.66;;;5.39;57.15
15604;BME280;7902;49.042;9.092;2023-01-27T04:53:32;99390.34;;;5.36;56.87
15604;BME280;7902;49.042;9.092;2023-01-27T04:56:10;99386.09;;;5.33;57.27
15604;BME280;7902;49.042;9.092;2023-01-27T04:58:39;99377.75;;;5.26;57.37
15604;BME280;7902;49.042;9.092;2023-01-27T05:01:05;99384.34;;;5.15;57.61
15604;BME280;7902;49.042;9.092;2023-01-27T05:03:31;99380.69;;;5.19;57.78
15604;BME280;7902;49.042;9.092;2023-01-27T05:05:57;99378.47;;;5.11;57.59
15604;BME280;7902;49.042;9.092;2023-01-27T05:08:23;99380.91;;;5.14;57.54
15604;BME280;7902;49.042;9.092;2023-01-27T05:10:49;99383.41;;;5.17;57.60
15604;BME280;7902;49.042;9.092;2023-01-27T05:13:17;99375.50;;;5.19;57.90
15604;BME280;7902;49.042;9.092;2023-01-27T05:15:43;99376.00;;;5.27;57.44
15604;BME280;7902;49.042;9.092;2023-01-27T05:18:09;99387.38;;;5.24;57.30
15604;BME280;7902;49.042;9.092;2023-01-27T05:20:34;99383.81;;;5.27;57.40
15604;BME280;7902;49.042;9.092;2023-01-27T05:23:00;99380.78;;;5.36;57.57
15604;BME280;7902;49.042;9.092;2023-01-27T05:25:44;99388.69;;;5.52;56.86
15604;BME280;7902;49.042;9.092;2023-01-27T05:28:10;99386.41;;;5.46;57.00
15604;BME280;7902;49.042;9.092;2023-01-27T05:30:37;99380.81;;;5.53;56.83
15604;BME280;7902;49.042;9.092;2023-01-27T05:33:03;99380.69;;;5.38;56.94
15604;BME280;7902;49.042;9.092;2023-01-27T05:35:31;99386.09;;;5.33;57.01
15604;BME280;7902;49.042;9.092;2023-01-27T05:37:57;99395.19;;;5.43;56.64
15604;BME280;7902;49.042;9.092;2023-01-27T05:40:23;99402.84;;;5.46;56.92
15604;BME280;7902;49.042;9.092;2023-01-27T05:42:52;99406.50;;;5.42;56.88
15604;BME280;7902;49.042;9.092;2023-01-27T05:45:18;99416.50;;;5.51;56.83
15604;BME280;7902;49.042;9.092;2023-01-27T05:47:50;99417.50;;;5.49;57.29
15604;BME280;7902;49.042;9.092;2023-01-27T05:50:16;99418.19;;;5.52;56.79
15604;BME280;7902;49.042;9.092;2023-01-27T05:52:43;99411.50;;;5.47;57.15
15604;BME280;7902;49.042;9.092;2023-01-27T05:55:09;99409.13;;;5.42;57.12
15604;BME280;7902;49.042;9.092;2023-01-27T05:57:35;99409.75;;;5.47;56.87
15604;BME280;7902;49.042;9.092;2023-01-27T06:00:02;99406.38;;;5.45;57.07
15604;BME280;7902;49.042;9.092;2023-01-27T06:02:28;99408.00;;;5.48;56.78
15604;BME280;7902;49.042;9.092;2023-01-27T06:04:54;99409.13;;;5.42;57.22
15604;BME280;7902;49.042;9.092;2023-01-27T06:07:20;99408.78;;;5.50;57.02
15604;BME280;7902;49.042;9.092;2023-01-27T06:09:45;99408.69;;;5.51;57.10
15604;BME280;7902;49.042;9.092;2023-01-27T06:12:11;99411.91;;;5.56;56.17
15604;BME280;7902;49.042;9.092;2023-01-27T06:14:37;99409.75;;;5.47;56.40
15604;BME280;7902;49.042;9.092;2023-01-27T06:17:03;99414.53;;;5.56;56.99
15604;BME280;7902;49.042;9.092;2023-01-27T06:19:29;99414.19;;;5.45;56.95
15604;BME280;7902;49.042;9.092;2023-01-27T06:21:55;99407.28;;;5.44;56.59
15604;BME280;7902;49.042;9.092;2023-01-27T06:24:21;99402.66;;;5.51;56.61
15604;BME280;7902;49.042;9.092;2023-01-27T06:26:48;99405.53;;;5.45;56.69
15604;BME280;7902;49.042;9.092;2023-01-27T06:29:14;99415.59;;;5.52;56.41
15604;BME280;7902;49.042;9.092;2023-01-27T06:31:40;99406.81;;;5.55;56.72
15604;BME280;7902;49.042;9.092;2023-01-27T06:34:06;99413.56;;;5.59;56.31
15604;BME280;7902;49.042;9.092;2023-01-27T06:36:32;99411.00;;;5.57;56.83
15604;BME280;7902;49.042;9.092;2023-01-27T06:38:58;99419.59;;;5.59;56.07
15604;BME280;7902;49.042;9.092;2023-01-27T06:41:23;99419.88;;;5.53;56.62
15604;BME280;7902;49.042;9.092;2023-01-27T06:43:49;99426.78;;;5.54;56.61
15604;BME280;7902;49.042;9.092;2023-01-27T06:46:15;99435.50;;;5.53;56.46
15604;BME280;7902;49.042;9.092;2023-01-27T06:48:41;99441.34;;;5.58;57.11
15604;BME280;7902;49.042;9.092;2023-01-27T06:51:07;99445.50;;;5.62;56.79
15604;BME280;7902;49.042;9.092;2023-01-27T06:53:33;99445.66;;;5.59;56.49
15604;BME280;7902;49.042;9.092;2023-01-27T06:56:01;99442.69;;;5.48;56.75
15604;BME280;7902;49.042;9.092;2023-01-27T06:58:27;99456.78;;;5.44;56.75
15604;BME280;7902;49.042;9.092;2023-01-27T07:00:53;99457.25;;;5.52;56.69
15604;BME280;7902;49.042;9.092;2023-01-27T07:03:19;99465.56;;;5.60;56.25
15604;BME280;7902;49.042;9.092;2023-01-27T07:05:45;99466.34;;;5.62;56.70
15604;BME280;7902;49.042;9.092;2023-01-27T07:08:11;99472.81;;;5.54;56.97
15604;BME280;7902;49.042;9.092;2023-01-27T07:10:37;99471.91;;;5.55;56.99
15604;BME280;7902;49.042;9.092;2023-01-27T07:13:05;99482.88;;;5.61;56.88
15604;BME280;7902;49.042;9.092;2023-01-27T07:15:31;99491.69;;;5.59;56.72
15604;BME280;7902;49.042;9.092;2023-01-27T07:17:58;99488.41;;;5.55;56.97
15604;BME280;7902;49.042;9.092;2023-01-27T07:20:25;99483.25;;;5.54;56.74
15604;BME280;7902;49.042;9.092;2023-01-27T07:22:58;99484.16;;;5.53;56.67
15604;BME280;7902;49.042;9.092;2023-01-27T07:25:24;99485.50;;;5.61;56.30
15604;BME280;7902;49.042;9.092;2023-01-27T07:27:51;99484.31;;;5.50;56.46
15604;BME280;7902;49.042;9.092;2023-01-27T07:30:17;99487.34;;;5.59;56.37
15604;BME280;7902;49.042;9.092;2023-01-27T07:32:43;99486.34;;;5.62;56.12
15604;BME280;7902;49.042;9.092;2023-01-27T07:35:09;99492.81;;;5.72;56.46
15604;BME280;7902;49.042;9.092;2023-01-27T07:37:35;99494.78;;;5.86;55.62
15604;BME280;7902;49.042;9.092;2023-01-27T07:40:01;99492.03;;;5.89;55.80
15604;BME280;7902;49.042;9.092;2023-01-27T07:42:27;99500.13;;;5.83;55.39
15604;BME280;7902;49.042;9.092;2023-01-27T07:44:53;99501.97;;;5.81;55.55
15604;BME280;7902;49.042;9.092;2023-01-27T07:47:18;99507.78;;;5.87;55.55
15604;BME280;7902;49.042;9.092;2023-01-27T07:49:44;99509.25;;;5.93;55.15
15604;BME280;7902;49.042;9.092;2023-01-27T07:52:10;99497.25;;;5.89;55.93
15604;BME280;7902;49.042;9.092;2023-01-27T07:54:36;99506.25;;;5.82;55.83
15604;BME280;7902;49.042;9.092;2023-01-27T07:57:02;99506.78;;;5.90;55.89
15604;BME280;7902;49.042;9.092;2023-01-27T07:59:28;99507.84;;;5.84;55.36
15604;BME280;7902;49.042;9.092;2023-01-27T08:01:54;99511.84;;;5.74;55.71
15604;BME280;7902;49.042;9.092;2023-01-27T08:04:20;99503.88;;;5.77;55.79
15604;BME280;7902;49.042;9.092;2023-01-27T08:06:46;99505.78;;;5.73;56.19
15604;BME280;7902;49.042;9.092;2023-01-27T08:09:11;99516.69;;;5.82;55.76
15604;BME280;7902;49.042;9.092;2023-01-27T08:11:37;99518.44;;;5.81;56.09
15604;BME280;7902;49.042;9.092;2023-01-27T08:14:03;99529.03;;;5.78;56.23
15604;BME280;7902;49.042;9.092;2023-01-27T08:16:29;99531.75;;;5.75;56.41
15604;BME280;7902;49.042;9.092;2023-01-27T08:18:55;99533.53;;;5.93;55.81
15604;BME280;7902;49.042;9.092;2023-01-27T08:21:21;99522.13;;;5.96;55.59
15604;BME280;7902;49.042;9.092;2023-01-27T08:23:47;99523.94;;;5.94;55.29
15604;BME280;7902;49.042;9.092;2023-01-27T08:26:13;99524.44;;;5.83;55.18
15604;BME280;7902;49.042;9.092;2023-01-27T08:28:39;99527.19;;;5.99;55.81
15604;BME280;7902;49.042;9.092;2023-01-27T08:31:14;99524.34;;;5.85;55.49
15604;BME280;7902;49.042;9.092;2023-01-27T08:33:42;99523.44;;;5.86;55.72
15604;BME280;7902;49.042;9.092;2023-01-27T08:36:14;99532.97;;;5.87;55.96
15604;BME280;7902;49.042;9.092;2023-01-27T08:38:41;99529.16;;;5.94;56.08
15604;BME280;7902;49.042;9.092;2023-01-27T08:41:12;99531.00;;;5.92;55.20
15604;BME280;7902;49.042;9.092;2023-01-27T08:43:39;99530.16;;;5.91;55.71
15604;BME280;7902;49.042;9.092;2023-01-27T08:46:06;99537.91;;;5.93;55.46
15604;BME280;7902;49.042;9.092;2023-01-27T08:48:33;99543.63;;;6.01;55.12
15604;BME280;7902;49.042;9.092;2023-01-27T08:50:59;99550.09;;;5.92;55.46
15604;BME280;7902;49.042;9.092;2023-01-27T08:53:26;99554.88;;;5.83;55.35
15604;BME280;7902;49.042;9.092;2023-01-27T08:55:55;99550.41;;;5.85;55.18
15604;BME280;7902;49.042;9.092;2023-01-27T08:58:22;99558.31;;;5.83;55.24
15604;BME280;7902;49.042;9.092;2023-01-27T09:00:48;99554.88;;;5.83;55.38
15604;BME280;7902;49.042;9.092;2023-01-27T09:03:14;99551.34;;;5.84;55.49
15604;BME280;7902;49.042;9.092;2023-01-27T09:05:40;99549.06;;;5.76;55.36
15604;BME280;7902;49.042;9.092;2023-01-27T09:08:07;99542.97;;;5.96;55.36
15604;BME280;7902;49.042;9.092;2023-01-27T09:10:38;99542.53;;;5.86;55.76
15604;BME280;7902;49.042;9.092;2023-01-27T09:13:05;99542.69;;;5.83;55.66
15604;BME280;7902;49.042;9.092;2023-01-27T09:15:31;99540.84;;;5.85;55.17
15604;BME280;7902;49.042;9.092;2023-01-27T09:17:57;99539.56;;;5.75;55.57
15604;BME280;7902;49.042;9.092;2023-01-27T09:20:23;99537.38;;;5.85;55.63
15604;BME280;7902;49.042;9.092;2023-01-27T09:22:49;99536.00;;;5.96;55.22
15604;BME280;7902;49.042;9.092;2023-01-27T09:25:16;99544.38;;;6.03;55.56
15604;BME280;7902;49.042;9.092;2023-01-27T09:27:43;99550.22;;;6.08;54.66
15604;BME280;7902;49.042;9.092;2023-01-27T09:30:10;99546.06;;;6.04;54.78
15604;BME280;7902;49.042;9.092;2023-01-27T09:32:37;99550.94;;;5.93;55.13
15604;BME280;7902;49.042;9.092;2023-01-27T09:35:03;99553.41;;;5.96;55.58
15604;BME280;7902;49.042;9.092;2023-01-27T09:37:31;99549.88;;;5.97;55.33
15604;BME280;7902;49.042;9.092;2023-01-27T09:40:01;99550.09;;;5.92;54.97
15604;BME280;7902;49.042;9.092;2023-01-27T09:42:48;99561.00;;;6.19;54.49
15604;BME280;7902;49.042;9.092;2023-01-27T09:50:44;99561.44;;;5.91;55.43
15604;BME280;7902;49.042;9.092;2023-01-27T09:56:00;99563.53;;;6.21;55.17
15604;BME280;7902;49.042;9.092;2023-01-27T10:12:10;99558.84;;;6.27;54.44
15604;BME280;7902;49.042;9.092;2023-01-27T10:19:55;99560.13;;;6.37;54.31
15604;BME280;7902;49.042;9.092;2023-01-27T10:25:23;99547.84;;;6.39;54.34
15604;BME280;7902;49.042;9.092;2023-01-27T10:27:57;99557.38;;;6.40;54.93
15604;BME280;7902;49.042;9.092;2023-01-27T10:30:32;99549.69;;;6.37;54.64
15604;BME280;7902;49.042;9.092;2023-01-27T10:35:52;99549.06;;;6.32;54.86
15604;BME280;7902;49.042;9.092;2023-01-27T10:38:36;99551.22;;;6.41;54.85
15604;BME280;7902;49.042;9.092;2023-01-27T10:44:11;99546.56;;;6.48;54.18
15604;BME280;7902;49.042;9.092;2023-01-27T10:47:07;99545.56;;;6.50;54.56
15604;BME280;7902;49.042;9.092;2023-01-27T10:49:38;99546.94;;;6.57;54.40
15604;BME280;7902;49.042;9.092;2023-01-27T10:52:13;99546.72;;;6.62;54.25
15604;BME280;7902;49.042;9.092;2023-01-27T10:54:49;99549.34;;;6.62;54.30
15604;BME280;7902;49.042;9.092;2023-01-27T10:57:24;99547.72;;;6.59;54.08
15604;BME280;7902;49.042;9.092;2023-01-27T11:02:39;99553.88;;;6.58;54.72
15604;BME280;7902;49.042;9.092;2023-01-27T11:05:15;99545.94;;;6.60;54.24
15604;BME280;7902;49.042;9.092;2023-01-27T11:07:50;99552.69;;;6.64;53.72
15604;BME280;7902;49.042;9.092;2023-01-27T11:10:18;99550.47;;;6.56;54.81
15604;BME280;7902;49.042;9.092;2023-01-27T11:12:52;99557.53;;;6.54;54.78
15604;BME280;7902;49.042;9.092;2023-01-27T11:15:25;99547.88;;;6.56;54.68
15604;BME280;7902;49.042;9.092;2023-01-27T11:18:25;99547.66;;;6.61;53.87
15604;BME280;7902;49.042;9.092;2023-01-27T11:20:59;99548.50;;;6.61;54.03
15604;BME280;7902;49.042;9.092;2023-01-27T11:23:29;99551.09;;;6.61;54.40
15604;BME280;7902;49.042;9.092;2023-01-27T11:26:11;99555.94;;;6.69;54.20
15604;BME280;7902;49.042;9.092;2023-01-27T11:29:07;99546.50;;;6.67;53.51
15604;BME280;7902;49.042;9.092;2023-01-27T11:34:30;99546.94;;;6.57;54.77
15604;BME280;7902;49.042;9.092;2023-01-27T11:36:58;99542.09;;;6.50;54.18
15604;BME280;7902;49.042;9.092;2023-01-27T11:39:30;99540.09;;;6.55;54.77
15604;BME280;7902;49.042;9.092;2023-01-27T11:41:57;99537.88;;;6.65;53.90
15604;BME280;7902;49.042;9.092;2023-01-27T11:44:26;99531.13;;;6.60;54.71
15604;BME280;7902;49.042;9.092;2023-01-27T11:46:54;99527.00;;;6.56;54.81
15604;BME280;7902;49.042;9.092;2023-01-27T11:49:26;99534.97;;;6.53;54.49
15604;BME280;7902;49.042;9.092;2023-01-27T11:52:07;99532.78;;;6.63;54.11
15604;BME280;7902;49.042;9.092;2023-01-27T11:54:47;99528.91;;;6.70;54.75
15604;BME280;7902;49.042;9.092;2023-01-27T11:57:21;99539.75;;;6.63;54.41
15604;BME280;7902;49.042;9.092;2023-01-27T11:59:57;99531.97;;;6.61;53.99
15604;BME280;7902;49.042;9.092;2023-01-27T12:02:29;99530.53;;;6.55;54.41
15604;BME280;7902;49.042;9.092;2023-01-27T12:05:08;99533.91;;;6.57;54.80
15604;BME280;7902;49.042;9.092;2023-01-27T12:07:44;99519.94;;;6.58;54.04
15604;BME280;7902;49.042;9.092;2023-01-27T12:10:30;99523.47;;;6.57;54.18
15604;BME280;7902;49.042;9.092;2023-01-27T12:15:35;99524.22;;;6.59;54.46
15604;BME280;7902;49.042;9.092;2023-01-27T12:18:12;99521.25;;;6.67;54.23
15604;BME280;7902;49.042;9.092;2023-01-27T12:20:44;99521.25;;;6.67;54.36
15604;BME280;7902;49.042;9.092;2023-01-27T12:23:20;99506.91;;;6.76;54.44
15604;BME280;7902;49.042;9.092;2023-01-27T12:26:32;99514.34;;;6.66;54.14
15604;BME280;7902;49.042;9.092;2023-01-27T12:29:03;99519.41;;;6.69;54.47
15604;BME280;7902;49.042;9.092;2023-01-27T12:31:31;99523.47;;;6.75;54.10
15604;BME280;7902;49.042;9.092;2023-01-27T12:34:23;99523.34;;;6.78;53.73
15604;BME280;7902;49.042;9.092;2023-01-27T12:36:50;99517.50;;;6.73;53.88
15604;BME280;7902;49.042;9.092;2023-01-27T12:39:45;99512.78;;;6.79;53.46
15604;BME280;7902;49.042;9.092;2023-01-27T12:43:15;99513.81;;;6.77;53.78
15604;BME280;7902;49.042;9.092;2023-01-27T12:45:29;99514.72;;;6.76;53.97
15604;BME280;7902;49.042;9.092;2023-01-27T12:50:40;99511.03;;;6.80;53.89
15604;BME280;7902;49.042;9.092;2023-01-27T12:53:14;99511.03;;;6.80;53.66
15604;BME280;7902;49.042;9.092;2023-01-27T12:55:42;99515.41;;;6.79;53.94
15604;BME280;7902;49.042;9.092;2023-01-27T13:01:30;99506.66;;;6.80;53.26
15604;BME280;7902;49.042;9.092;2023-01-27T13:03:59;99503.38;;;6.77;53.87
15604;BME280;7902;49.042;9.092;2023-01-27T13:06:40;99517.19;;;6.61;54.46
15604;BME280;7902;49.042;9.092;2023-01-27T13:09:28;99527.94;;;6.73;54.34
15604;BME280;7902;49.042;9.092;2023-01-27T13:11:57;99524.09;;;6.63;54.03
15604;BME280;7902;49.042;9.092;2023-01-27T13:14:28;99516.56;;;6.74;54.19
15604;BME280;7902;49.042;9.092;2023-01-27T13:16:56;99521.78;;;6.74;53.76
15604;BME280;7902;49.042;9.092;2023-01-27T13:19:33;99522.56;;;6.76;53.86
15604;BME280;7902;49.042;9.092;2023-01-27T13:22:02;99524.78;;;6.66;54.09
15604;BME280;7902;49.042;9.092;2023-01-27T13:24:35;99523.94;;;6.66;54.55
15604;BME280;7902;49.042;9.092;2023-01-27T13:27:08;99532.16;;;6.75;54.24
15604;BME280;7902;49.042;9.092;2023-01-27T13:29:37;99526.31;;;6.70;54.38
15604;BME280;7902;49.042;9.092;2023-01-27T13:32:13;99530.84;;;6.67;54.39
15604;BME280;7902;49.042;9.092;2023-01-27T13:34:46;99535.22;;;6.66;54.53
15604;BME280;7902;49.042;9.092;2023-01-27T13:37:16;99536.69;;;6.72;54.44
15604;BME280;7902;49.042;9.092;2023-01-27T13:42:23;99526.00;;;6.76;54.66
15604;BME280;7902;49.042;9.092;2023-01-27T13:45:14;99536.75;;;6.70;54.96
15604;BME280;7902;49.042;9.092;2023-01-27T13:48:03;99535.06;;;6.69;54.45
15604;BME280;7902;49.042;9.092;2023-01-27T13:50:42;99528.47;;;6.79;54.30
15604;BME280;7902;49.042;9.092;2023-01-27T13:53:12;99525.63;;;6.67;54.59
15604;BME280;7902;49.042;9.092;2023-01-27T14:01:31;99531.75;;;6.83;53.95
15604;BME280;7902;49.042;9.092;2023-01-27T14:09:55;99531.63;;;6.86;53.75
15604;BME280;7902;49.042;9.092;2023-01-27T14:20:17;99558.69;;;6.83;54.12
15604;BME280;7902;49.042;9.092;2023-01-27T14:23:08;99552.50;;;6.86;54.25
15604;BME280;7902;49.042;9.092;2023-01-27T14:26:24;99554.94;;;6.89;53.70
15604;BME280;7902;49.042;9.092;2023-01-27T14:29:31;99545.41;;;6.88;53.71
15604;BME280;7902;49.042;9.092;2023-01-27T14:40:32;99555.41;;;6.80;54.44
15604;BME280;7902;49.042;9.092;2023-01-27T14:43:17;99554.66;;;6.78;54.62
15604;BME280;7902;49.042;9.092;2023-01-27T14:45:52;99555.03;;;6.87;54.29
15604;BME280;7902;49.042;9.092;2023-01-27T14:59:24;99552.63;;;6.83;53.79
15604;BME280;7902;49.042;9.092;2023-01-27T15:04:42;99552.09;;;6.93;54.47
15604;BME280;7902;49.042;9.092;2023-01-27T15:15:38;99553.00;;;6.92;53.91
15604;BME280;7902;49.042;9.092;2023-01-27T15:26:34;99558.09;;;6.95;54.17
15604;BME280;7902;49.042;9.092;2023-01-27T15:29:01;99557.63;;;7.04;53.41
15604;BME280;7902;49.042;9.092;2023-01-27T15:31:29;99558.34;;;6.91;53.41
15604;BME280;7902;49.042;9.092;2023-01-27T15:34:20;99566.47;;;6.85;53.56